Terminal Aerodrome Forecast
Issued by NWS Springfield, MO

Home | Current Version | Previous Version | Text Only | Print | Product List | Glossary On
Versions: 1 2 3 4 5 6 7 8 9 10 11 12 13 14 15 16 17 18 19 20 21
297
FTUS43 KSGF 251720
TAFSGF
TAF
KSGF 251720Z 2518/2618 32006KT P6SM VCSH SCT050 BKN120
     FM252100 03006KT P6SM SCT070 BKN200
     FM260600 09005KT P6SM SCT050 BKN080 PROB30 2610/2616 4SM TSRA
      BR BKN035CB=

USA.gov is the U.S. government's official web portal to all federal, state and local government web resources and services.